Time;durP1;ratioP1;P1;durP2;ratioP2;P2;SDS_P1;SDS_P2;PMS_P1;PMS_P2;Temp;Humidity;BMP_temperature;BMP_pressure;BME280_temperature;BME280_humidity;BME280_pressure;Samples;Min_cycle;Max_cycle;Signal;HPM_P1;HPM_P2
2022/07/09 00:02:18;;;;;;;28.83;5.67;;;15.20;25.00;;;;;;5053874;28;20473;-70
2022/07/09 00:04:45;;;;;;;27.20;5.00;;;15.20;25.20;;;;;;5053668;28;20480;-71
2022/07/09 00:07:13;;;;;;;27.67;4.87;;;15.20;25.20;;;;;;5070912;28;20472;-71
2022/07/09 00:09:40;;;;;;;29.00;5.60;;;15.20;25.00;;;;;;5069476;28;20467;-71
2022/07/09 00:12:07;;;;;;;26.30;5.33;;;15.20;25.10;;;;;;5070621;28;20464;-71
2022/07/09 00:14:34;;;;;;;26.73;5.50;;;15.20;25.20;;;;;;5048490;28;20470;-71
2022/07/09 00:17:01;;;;;;;26.53;4.97;;;15.20;25.30;;;;;;5061043;28;20842;-71
2022/07/09 00:19:27;;;;;;;27.50;4.67;;;15.20;25.20;;;;;;5065418;28;20459;-70
2022/07/09 00:21:54;;;;;;;31.77;5.47;;;15.20;25.20;;;;;;5050163;28;20454;-69
2022/07/09 00:24:22;;;;;;;28.90;5.97;;;15.20;25.40;;;;;;5051572;28;20477;-70
2022/07/09 00:26:49;;;;;;;28.70;4.90;;;15.10;25.30;;;;;;5058494;28;20477;-70
2022/07/09 00:29:16;;;;;;;27.40;5.70;;;15.10;25.50;;;;;;5061698;28;20498;-70
2022/07/09 00:31:45;;;;;;;28.80;5.40;;;15.00;25.40;;;;;;5047322;28;20484;-71
2022/07/09 00:34:12;;;;;;;27.67;5.40;;;15.00;25.70;;;;;;5060611;28;20465;-72
2022/07/09 00:36:39;;;;;;;30.83;6.37;;;14.90;25.60;;;;;;5056418;28;20848;-71
2022/07/09 00:39:05;;;;;;;26.10;5.10;;;14.90;25.80;;;;;;5056286;28;20465;-70
2022/07/09 00:41:34;;;;;;;26.97;5.97;;;14.90;26.10;;;;;;5059072;28;20449;-71
2022/07/09 00:44:00;;;;;;;26.83;5.80;;;14.90;26.40;;;;;;5068748;28;21110;-70
2022/07/09 00:46:27;;;;;;;26.67;5.40;;;14.80;26.80;;;;;;5052560;28;21068;-71
2022/07/09 00:48:54;;;;;;;31.87;5.43;;;14.80;26.90;;;;;;5053635;28;20509;-70
2022/07/09 00:51:21;;;;;;;27.43;5.03;;;14.70;27.30;;;;;;5065636;28;20470;-71
2022/07/09 00:53:50;;;;;;;26.73;5.30;;;14.80;27.30;;;;;;5053732;28;20461;-69
2022/07/09 00:56:17;;;;;;;28.20;5.70;;;14.70;27.50;;;;;;5049352;28;20486;-70
2022/07/09 00:58:46;;;;;;;29.43;5.60;;;14.70;27.40;;;;;;5066899;28;20461;-70
2022/07/09 01:01:13;;;;;;;26.53;5.10;;;14.70;27.30;;;;;;5070152;28;20469;-70
2022/07/09 01:03:40;;;;;;;27.07;5.20;;;14.70;27.30;;;;;;5062744;28;20468;-70
2022/07/09 01:06:07;;;;;;;28.50;5.70;;;14.70;27.20;;;;;;5040514;28;20500;-70
2022/07/09 01:08:33;;;;;;;27.43;5.50;;;14.70;27.20;;;;;;5056611;28;20461;-70
2022/07/09 01:11:01;;;;;;;27.13;5.20;;;14.70;27.20;;;;;;5070238;28;20457;-72
2022/07/09 01:13:28;;;;;;;29.07;5.57;;;14.80;27.20;;;;;;5067817;28;20461;-69
2022/07/09 01:15:56;;;;;;;28.20;5.80;;;14.70;27.20;;;;;;5054048;28;20466;-71
2022/07/09 01:18:23;;;;;;;27.43;5.40;;;14.70;27.60;;;;;;5047759;28;20466;-70
2022/07/09 01:20:52;;;;;;;29.50;5.23;;;14.70;27.70;;;;;;5069008;28;20465;-70
2022/07/09 01:23:19;;;;;;;28.90;5.50;;;14.70;28.00;;;;;;5058595;28;20502;-71
2022/07/09 01:25:46;;;;;;;26.90;5.57;;;14.70;27.90;;;;;;5063310;28;20489;-71
2022/07/09 01:28:13;;;;;;;27.27;5.43;;;14.70;27.90;;;;;;5050103;28;20841;-70
2022/07/09 01:30:41;;;;;;;27.20;5.10;;;14.70;28.00;;;;;;5064143;28;20456;-72
2022/07/09 01:33:08;;;;;;;27.00;5.13;;;14.70;28.10;;;;;;5064563;28;20969;-70
2022/07/09 01:35:35;;;;;;;29.77;5.77;;;14.70;28.20;;;;;;5058717;28;20485;-70
2022/07/09 01:38:03;;;;;;;26.70;4.83;;;14.70;28.30;;;;;;5049989;28;20465;-71
2022/07/09 01:40:30;;;;;;;26.83;5.80;;;14.70;28.30;;;;;;5059849;28;20926;-71
2022/07/09 01:42:57;;;;;;;27.63;5.77;;;14.60;28.50;;;;;;5063274;28;20791;-70
2022/07/09 01:45:24;;;;;;;28.00;5.90;;;14.60;28.60;;;;;;5062144;28;20481;-71
2022/07/09 01:47:53;;;;;;;28.50;6.87;;;14.60;28.80;;;;;;5061714;28;20481;-71
2022/07/09 01:50:20;;;;;;;30.27;5.33;;;14.50;28.90;;;;;;5048136;28;20467;-70
2022/07/09 01:52:48;;;;;;;27.60;4.93;;;14.50;29.10;;;;;;5053857;28;20462;-70
2022/07/09 01:55:16;;;;;;;26.90;5.50;;;14.50;29.30;;;;;;5049541;28;20462;-70
2022/07/09 01:57:43;;;;;;;28.23;5.27;;;14.50;29.40;;;;;;5061981;28;20476;-70
2022/07/09 02:00:11;;;;;;;28.80;6.40;;;14.50;29.40;;;;;;5063694;28;20465;-71
2022/07/09 02:02:37;;;;;;;29.80;5.73;;;14.40;29.30;;;;;;5032701;28;20686;-72
2022/07/09 02:05:05;;;;;;;28.60;5.30;;;14.40;29.40;;;;;;5038977;28;20477;-70
2022/07/09 02:07:32;;;;;;;29.40;5.23;;;14.30;29.30;;;;;;5065469;28;20488;-70
2022/07/09 02:09:59;;;;;;;29.73;6.07;;;14.30;29.60;;;;;;5066591;28;20991;-70
2022/07/09 02:12:27;;;;;;;27.03;5.37;;;14.20;29.40;;;;;;5052021;28;20466;-70
2022/07/09 02:14:54;;;;;;;28.63;6.53;;;14.20;29.60;;;;;;5056214;28;20462;-72
2022/07/09 02:17:21;;;;;;;26.13;5.23;;;14.20;29.80;;;;;;5061628;28;20532;-70
2022/07/09 02:19:48;;;;;;;28.47;5.70;;;14.10;30.30;;;;;;5068754;28;20977;-70
2022/07/09 02:22:14;;;;;;;26.77;5.60;;;14.00;30.90;;;;;;5057160;28;20466;-70
2022/07/09 02:24:57;;;;;;;32.33;6.80;;;14.00;31.10;;;;;;5051070;28;20508;-70
2022/07/09 02:27:24;;;;;;;28.63;6.00;;;13.90;31.60;;;;;;5067927;28;20499;-71
2022/07/09 02:29:52;;;;;;;27.10;5.97;;;14.00;30.90;;;;;;5059473;28;20461;-72
2022/07/09 02:32:18;;;;;;;29.60;6.90;;;13.90;31.00;;;;;;5057279;28;20470;-70
2022/07/09 02:34:45;;;;;;;26.37;5.37;;;13.90;31.20;;;;;;5049538;28;20578;-70
2022/07/09 02:37:12;;;;;;;28.37;5.37;;;13.90;30.90;;;;;;5063016;28;20768;-71
2022/07/09 02:39:39;;;;;;;28.37;6.00;;;13.90;31.10;;;;;;5067768;28;20461;-71
2022/07/09 02:42:06;;;;;;;30.37;6.03;;;13.80;31.40;;;;;;5041167;28;20837;-71
2022/07/09 02:44:33;;;;;;;30.83;5.80;;;13.70;31.30;;;;;;5052455;28;20996;-70
2022/07/09 02:47:01;;;;;;;28.37;6.00;;;13.70;31.90;;;;;;5056622;28;21014;-71
2022/07/09 02:49:29;;;;;;;28.83;6.20;;;13.70;31.90;;;;;;5057573;28;20861;-71
2022/07/09 02:51:57;;;;;;;29.00;5.60;;;13.70;31.70;;;;;;5061353;28;21058;-71
2022/07/09 02:54:24;;;;;;;33.00;6.60;;;13.70;31.50;;;;;;5047634;28;20498;-71
2022/07/09 02:56:51;;;;;;;30.20;6.30;;;13.60;31.80;;;;;;5050658;28;20489;-71
2022/07/09 02:59:17;;;;;;;28.17;5.97;;;13.50;31.80;;;;;;5061673;28;20465;-72
2022/07/09 03:01:45;;;;;;;29.00;6.10;;;13.40;31.80;;;;;;5059331;28;20565;-70
2022/07/09 03:04:13;;;;;;;28.10;6.93;;;13.40;32.00;;;;;;5062095;28;20861;-71
2022/07/09 03:06:40;;;;;;;29.30;6.30;;;13.40;32.30;;;;;;5051213;28;20482;-71
2022/07/09 03:09:07;;;;;;;34.20;6.60;;;13.40;32.80;;;;;;5064647;28;21154;-72
2022/07/09 03:11:33;;;;;;;26.43;5.50;;;13.40;32.60;;;;;;5063831;28;20507;-72
2022/07/09 03:14:00;;;;;;;28.53;6.10;;;13.30;32.70;;;;;;5056588;28;20462;-70
2022/07/09 03:16:27;;;;;;;42.97;8.73;;;13.30;32.80;;;;;;5047498;28;20485;-71
2022/07/09 03:18:54;;;;;;;30.20;6.13;;;13.30;32.90;;;;;;5057952;28;20465;-71
2022/07/09 03:21:22;;;;;;;28.10;5.97;;;13.30;33.00;;;;;;5055838;28;20465;-71
2022/07/09 03:23:49;;;;;;;28.03;6.83;;;13.20;33.40;;;;;;5051267;28;20511;-71
2022/07/09 03:26:16;;;;;;;31.00;6.10;;;13.20;33.40;;;;;;5064500;28;20480;-70
2022/07/09 03:28:42;;;;;;;30.27;6.30;;;13.10;33.40;;;;;;5058614;28;21104;-70
2022/07/09 03:31:09;;;;;;;28.67;5.60;;;13.10;33.30;;;;;;5063920;28;20955;-72
2022/07/09 03:33:36;;;;;;;29.17;5.87;;;13.10;33.50;;;;;;5051156;28;20493;-69
2022/07/09 03:36:03;;;;;;;30.10;6.03;;;13.00;33.40;;;;;;5063654;28;20496;-69
2022/07/09 03:38:31;;;;;;;29.67;7.20;;;13.00;33.50;;;;;;5053013;28;20465;-69
2022/07/09 03:40:58;;;;;;;28.23;6.10;;;13.00;33.60;;;;;;5070150;28;20457;-70
2022/07/09 03:43:25;;;;;;;30.00;5.90;;;13.00;33.80;;;;;;5059889;28;20466;-72
2022/07/09 03:45:52;;;;;;;29.73;5.87;;;13.10;33.80;;;;;;5059713;28;20461;-69
2022/07/09 03:48:18;;;;;;;28.37;6.13;;;13.10;33.60;;;;;;5058271;28;20467;-70
2022/07/09 03:50:45;;;;;;;29.40;6.63;;;13.10;33.20;;;;;;5058575;28;20737;-70
2022/07/09 03:53:12;;;;;;;35.03;7.23;;;13.20;33.40;;;;;;5051305;28;20470;-70
2022/07/09 03:55:40;;;;;;;30.00;6.90;;;13.20;33.10;;;;;;5048736;28;20482;-71
2022/07/09 03:58:07;;;;;;;31.93;7.00;;;13.20;32.80;;;;;;5052765;28;20470;-70
2022/07/09 04:00:34;;;;;;;30.00;6.73;;;13.30;33.10;;;;;;5057750;28;20453;-70
2022/07/09 04:03:01;;;;;;;29.83;6.13;;;13.30;33.10;;;;;;5053015;28;20456;-71
2022/07/09 04:05:27;;;;;;;33.07;7.33;;;13.30;33.30;;;;;;5048381;28;20477;-70
2022/07/09 04:07:54;;;;;;;30.23;6.60;;;13.30;33.30;;;;;;5061466;28;20488;-71
2022/07/09 04:10:21;;;;;;;33.40;6.50;;;13.30;33.20;;;;;;5049046;28;20461;-71
2022/07/09 04:12:49;;;;;;;30.60;6.10;;;13.40;32.90;;;;;;5054843;28;20457;-70
2022/07/09 04:15:16;;;;;;;30.83;6.60;;;13.40;32.90;;;;;;5069482;28;20481;-70
2022/07/09 04:17:43;;;;;;;30.27;6.60;;;13.40;33.00;;;;;;5057681;28;20484;-70
2022/07/09 04:20:11;;;;;;;29.30;6.33;;;13.40;33.00;;;;;;5061624;28;20465;-71
2022/07/09 04:22:37;;;;;;;31.43;6.00;;;13.40;33.00;;;;;;5052303;28;20813;-70
2022/07/09 04:25:05;;;;;;;30.27;6.03;;;13.50;32.90;;;;;;5070682;28;20810;-71
2022/07/09 04:27:32;;;;;;;32.60;6.57;;;13.50;32.90;;;;;;5070020;28;20485;-70
2022/07/09 04:30:00;;;;;;;30.33;6.30;;;13.60;32.70;;;;;;5056951;28;20461;-71
2022/07/09 04:32:27;;;;;;;31.33;5.77;;;13.60;32.60;;;;;;5055432;28;21187;-70
2022/07/09 04:34:53;;;;;;;30.20;5.87;;;13.70;32.90;;;;;;5036033;28;20466;-71
2022/07/09 04:37:20;;;;;;;29.87;5.70;;;14.00;32.90;;;;;;5068699;28;20487;-71
2022/07/09 04:39:47;;;;;;;32.60;5.83;;;14.40;32.40;;;;;;5064166;28;20465;-70
2022/07/09 04:42:14;;;;;;;31.03;5.73;;;14.50;31.40;;;;;;5064079;28;20462;-71
2022/07/09 04:44:41;;;;;;;35.90;6.17;;;14.70;31.40;;;;;;5048150;28;20461;-70
2022/07/09 04:47:10;;;;;;;31.80;5.10;;;15.50;30.90;;;;;;5061416;28;20481;-70
2022/07/09 04:49:36;;;;;;;33.00;5.00;;;16.10;28.00;;;;;;5069679;28;20505;-71
2022/07/09 04:52:28;;;;;;;33.30;5.70;;;16.10;27.10;;;;;;5070086;28;20468;-71
2022/07/09 04:54:55;;;;;;;31.73;5.40;;;15.80;27.00;;;;;;5054330;28;20453;-72
2022/07/09 04:57:21;;;;;;;33.83;6.37;;;15.70;27.30;;;;;;5056123;28;20490;-72
2022/07/09 04:59:48;;;;;;;31.93;5.20;;;15.60;27.60;;;;;;5068392;28;20475;-69
2022/07/09 05:02:16;;;;;;;31.60;6.07;;;15.50;27.80;;;;;;5060148;28;20470;-71
2022/07/09 05:04:43;;;;;;;30.80;5.13;;;15.50;28.50;;;;;;5052721;28;20823;-70
2022/07/09 05:07:10;;;;;;;30.90;5.03;;;15.70;28.50;;;;;;5047651;28;20474;-70
2022/07/09 05:09:37;;;;;;;31.33;5.43;;;15.70;28.20;;;;;;5061591;28;20471;-70
2022/07/09 05:12:04;;;;;;;31.43;5.87;;;15.70;28.00;;;;;;5069638;28;20865;-70
2022/07/09 05:14:31;;;;;;;30.57;6.00;;;15.80;28.00;;;;;;5057528;28;20980;-71
2022/07/09 05:16:58;;;;;;;29.57;4.80;;;15.80;28.10;;;;;;5052581;28;20490;-70
2022/07/09 05:19:26;;;;;;;31.03;5.47;;;15.80;28.10;;;;;;5061327;28;20470;-72
2022/07/09 05:21:53;;;;;;;32.70;5.93;;;15.80;28.30;;;;;;5054358;28;20870;-70
2022/07/09 05:24:20;;;;;;;30.80;5.30;;;15.90;28.40;;;;;;5060302;28;20469;-70
2022/07/09 05:26:47;;;;;;;33.03;5.70;;;16.00;28.20;;;;;;5048997;28;20478;-70
2022/07/09 05:29:14;;;;;;;32.27;5.20;;;16.10;28.00;;;;;;5069116;28;20475;-71
2022/07/09 05:31:41;;;;;;;32.37;6.00;;;16.20;27.60;;;;;;5052954;28;20463;-71
2022/07/09 05:34:08;;;;;;;32.30;6.03;;;16.30;27.20;;;;;;5069247;28;20556;-72
2022/07/09 05:36:37;;;;;;;30.90;5.00;;;16.30;27.30;;;;;;5061679;28;20494;-70
2022/07/09 05:39:04;;;;;;;33.03;5.57;;;16.50;26.70;;;;;;5061388;28;20461;-70
2022/07/09 05:41:31;;;;;;;32.30;5.10;;;16.60;27.00;;;;;;5047609;28;20458;-71
2022/07/09 05:43:58;;;;;;;31.23;5.47;;;16.70;26.40;;;;;;5063409;28;20457;-71
2022/07/09 05:46:25;;;;;;;30.23;5.40;;;16.80;25.80;;;;;;5067086;28;20552;-70
2022/07/09 05:48:52;;;;;;;32.47;5.37;;;16.90;25.60;;;;;;5052305;28;20465;-71
2022/07/09 05:51:18;;;;;;;33.83;6.07;;;17.10;25.10;;;;;;5052440;28;20461;-71
2022/07/09 05:53:47;;;;;;;33.27;6.03;;;17.20;24.70;;;;;;5056851;28;20453;-72
2022/07/09 05:56:13;;;;;;;36.63;5.40;;;17.30;24.60;;;;;;5055117;28;20530;-70
2022/07/09 05:58:40;;;;;;;30.60;4.77;;;17.50;24.50;;;;;;5066801;28;20461;-70
2022/07/09 06:04:31;;;;;;;32.47;4.50;;;19.50;21.50;;;;;;5041724;28;20460;-70
2022/07/09 06:10:22;;;;;;;32.57;4.83;;;19.90;19.30;;;;;;5046615;28;20432;-71
2022/07/09 06:12:49;;;;;;;30.70;4.80;;;20.10;18.60;;;;;;5060315;28;21025;-71
2022/07/09 06:15:16;;;;;;;31.50;4.30;;;20.50;17.80;;;;;;5059992;28;20879;-71
2022/07/09 06:17:42;;;;;;;33.43;4.80;;;20.70;17.40;;;;;;5047455;28;20481;-71
2022/07/09 06:20:10;;;;;;;35.20;5.00;;;20.70;16.80;;;;;;5067923;28;20477;-71
2022/07/09 06:22:38;;;;;;;29.80;4.53;;;20.80;16.90;;;;;;5065238;28;20491;-66
2022/07/09 06:25:06;;;;;;;30.50;4.37;;;21.00;16.40;;;;;;5050897;28;20461;-66
2022/07/09 06:27:34;;;;;;;29.90;4.87;;;21.30;16.00;;;;;;5051290;28;20478;-66
2022/07/09 06:30:00;;;;;;;33.50;4.80;;;21.80;15.20;;;;;;5056980;28;20453;-66
2022/07/09 06:32:27;;;;;;;31.67;4.40;;;22.40;14.40;;;;;;5048469;28;20847;-67
2022/07/09 06:34:54;;;;;;;29.50;3.93;;;22.90;12.80;;;;;;5046300;28;20466;-66
2022/07/09 06:37:21;;;;;;;31.80;4.57;;;23.10;12.10;;;;;;5055553;28;20967;-66
2022/07/09 06:39:48;;;;;;;32.43;4.43;;;23.30;11.70;;;;;;5052994;28;20465;-66
2022/07/09 06:42:16;;;;;;;30.73;3.83;;;24.30;10.80;;;;;;5058469;28;21057;-66
2022/07/09 06:44:45;;;;;;;29.13;4.47;;;25.30;9.00;;;;;;5038288;28;20515;-67
2022/07/09 06:47:12;;;;;;;30.60;4.60;;;26.20;7.80;;;;;;5060529;28;20481;-67
2022/07/09 06:49:39;;;;;;;31.07;3.83;;;27.00;7.40;;;;;;5050495;28;20461;-68
2022/07/09 06:52:07;;;;;;;28.70;3.60;;;28.40;4.60;;;;;;5068652;28;20828;-66
2022/07/09 06:54:34;;;;;;;28.37;3.80;;;30.40;2.70;;;;;;5059650;28;20592;-65
2022/07/09 06:57:01;;;;;;;28.00;3.60;;;32.40;1.00;;;;;;5042423;28;20482;-65
2022/07/09 06:59:28;;;;;;;27.60;3.27;;;33.80;1.00;;;;;;5047298;28;20466;-66
2022/07/09 07:01:56;;;;;;;30.07;3.20;;;34.80;1.00;;;;;;5042428;28;20485;-66
2022/07/09 07:04:24;;;;;;;28.93;3.10;;;35.40;1.00;;;;;;5044791;28;20466;-66
2022/07/09 07:06:51;;;;;;;26.97;3.27;;;36.00;1.00;;;;;;5051954;28;20993;-65
2022/07/09 07:09:21;;;;;;;26.20;3.17;;;36.40;1.00;;;;;;5054594;28;21644;-65
2022/07/09 07:11:48;;;;;;;28.90;3.17;;;36.60;1.00;;;;;;5047334;28;20516;-65
2022/07/09 07:14:15;;;;;;;28.70;2.80;;;37.30;1.00;;;;;;5045656;28;20966;-65
2022/07/09 07:16:41;;;;;;;27.77;3.03;;;38.20;1.00;;;;;;5053832;28;20567;-65
2022/07/09 07:19:10;;;;;;;25.20;2.50;;;39.60;1.00;;;;;;5046682;28;20553;-65
2022/07/09 07:21:37;;;;;;;28.00;2.60;;;40.80;1.00;;;;;;5049237;28;20537;-66
2022/07/09 07:24:04;;;;;;;24.93;2.47;;;41.90;1.00;;;;;;5040170;28;20446;-65
2022/07/09 07:26:31;;;;;;;25.67;2.60;;;42.40;1.00;;;;;;5042137;28;20498;-65
2022/07/09 07:28:58;;;;;;;24.23;2.57;;;42.80;1.00;;;;;;5045273;28;20462;-65
2022/07/09 07:31:25;;;;;;;25.60;2.40;;;43.90;1.00;;;;;;5043251;28;20485;-66
2022/07/09 07:33:51;;;;;;;23.60;2.37;;;44.40;1.00;;;;;;5046895;28;20466;-65
2022/07/09 07:36:19;;;;;;;25.50;2.10;;;44.90;1.00;;;;;;5054510;28;21053;-66
2022/07/09 07:38:46;;;;;;;22.73;1.80;;;45.50;1.00;;;;;;5053198;28;20457;-65
2022/07/09 07:41:14;;;;;;;24.40;2.10;;;46.10;1.00;;;;;;5047911;28;20461;-65
2022/07/09 07:43:40;;;;;;;25.10;2.27;;;46.80;1.00;;;;;;5059776;28;20825;-65
2022/07/09 07:46:07;;;;;;;23.17;2.20;;;47.30;1.00;;;;;;5048112;28;20976;-66
2022/07/09 07:48:35;;;;;;;23.53;2.40;;;47.70;1.00;;;;;;5052084;28;20489;-65
2022/07/09 07:51:02;;;;;;;22.20;2.17;;;47.80;1.00;;;;;;5049047;28;20450;-66
2022/07/09 07:53:31;;;;;;;22.57;2.00;;;47.80;1.00;;;;;;5047015;28;20469;-66
2022/07/09 07:55:57;;;;;;;24.23;2.00;;;48.10;1.00;;;;;;5040166;28;20470;-66
2022/07/09 07:58:24;;;;;;;22.57;2.23;;;48.70;1.00;;;;;;5046296;28;20461;-66
2022/07/09 08:00:51;;;;;;;21.90;1.70;;;49.50;1.00;;;;;;5042484;28;20478;-66
2022/07/09 08:03:17;;;;;;;23.37;1.80;;;50.10;1.00;;;;;;5050439;28;20468;-66
2022/07/09 08:05:44;;;;;;;22.73;1.90;;;50.50;1.00;;;;;;5043132;28;20469;-66
2022/07/09 08:08:11;;;;;;;22.30;1.60;;;50.90;1.00;;;;;;5049413;28;20966;-66
2022/07/09 08:10:39;;;;;;;24.23;2.20;;;51.00;1.00;;;;;;5050893;28;20469;-66
2022/07/09 08:13:06;;;;;;;21.53;1.77;;;50.70;1.00;;;;;;5048650;28;20458;-66
2022/07/09 08:15:33;;;;;;;21.70;1.50;;;51.00;1.00;;;;;;5047293;28;20951;-66
2022/07/09 08:18:00;;;;;;;21.77;1.60;;;51.30;1.00;;;;;;5046788;28;20478;-66
2022/07/09 08:20:27;;;;;;;21.47;1.90;;;51.90;1.00;;;;;;5048284;28;20458;-66
2022/07/09 08:22:54;;;;;;;23.73;1.80;;;52.30;1.00;;;;;;5048139;28;20466;-66
2022/07/09 08:25:21;;;;;;;20.10;1.33;;;52.70;1.00;;;;;;5045011;28;20516;-66
2022/07/09 08:27:49;;;;;;;21.20;1.67;;;53.00;1.00;;;;;;5048338;28;20477;-66
2022/07/09 08:30:16;;;;;;;21.30;1.70;;;53.40;1.00;;;;;;5045733;28;20472;-67
2022/07/09 08:32:43;;;;;;;21.47;1.57;;;53.70;1.00;;;;;;5050430;28;20977;-66
2022/07/09 08:35:11;;;;;;;21.47;1.70;;;53.90;1.00;;;;;;5051329;28;20496;-66
2022/07/09 08:37:37;;;;;;;20.20;1.30;;;53.60;1.00;;;;;;5051378;28;20480;-66
2022/07/09 08:40:05;;;;;;;21.70;1.53;;;53.80;1.00;;;;;;5056867;28;20465;-66
2022/07/09 08:42:32;;;;;;;19.80;1.60;;;54.50;1.00;;;;;;5048910;28;20464;-66
2022/07/09 08:45:02;;;;;;;20.37;1.50;;;55.00;1.00;;;;;;5061149;28;20465;-66
2022/07/09 08:47:31;;;;;;;19.80;1.30;;;55.30;1.00;;;;;;5056015;28;20477;-66
2022/07/09 08:50:00;;;;;;;21.10;2.00;;;54.70;1.00;;;;;;5048045;28;21209;-66
2022/07/09 08:52:28;;;;;;;20.67;1.50;;;52.90;1.00;;;;;;5048988;28;20599;-66
2022/07/09 08:54:55;;;;;;;21.87;1.50;;;51.20;1.00;;;;;;5055294;28;20489;-66
2022/07/09 08:57:21;;;;;;;23.80;1.50;;;50.30;1.00;;;;;;5058836;28;20486;-66
2022/07/09 08:59:48;;;;;;;20.20;1.60;;;51.00;1.00;;;;;;5042278;28;20458;-74
2022/07/09 09:02:19;;;;;;;21.93;1.40;;;52.00;1.00;;;;;;5047856;28;20488;-74
2022/07/09 09:04:46;;;;;;;20.97;1.43;;;51.20;1.00;;;;;;5049097;28;20880;-74
2022/07/09 09:07:15;;;;;;;21.33;1.50;;;48.20;1.00;;;;;;5041476;28;20497;-73
2022/07/09 09:09:42;;;;;;;22.97;1.93;;;45.50;1.00;;;;;;5042262;28;20457;-74
2022/07/09 09:12:10;;;;;;;22.90;1.53;;;44.10;1.00;;;;;;5049055;28;20458;-74
2022/07/09 09:14:36;;;;;;;22.57;1.90;;;44.70;1.00;;;;;;5042383;28;20470;-71
2022/07/09 09:17:06;;;;;;;22.10;2.00;;;46.10;1.00;;;;;;5040263;28;20485;-72
2022/07/09 09:19:34;;;;;;;22.33;1.80;;;47.30;1.00;;;;;;5043363;28;20466;-72
2022/07/09 09:22:01;;;;;;;22.27;1.70;;;48.40;1.00;;;;;;5051970;28;21254;-72
2022/07/09 09:24:29;;;;;;;21.73;1.90;;;48.60;1.00;;;;;;5058926;28;20467;-72
2022/07/09 09:26:58;;;;;;;23.17;1.80;;;48.50;1.00;;;;;;5038383;28;20565;-72
2022/07/09 09:29:26;;;;;;;21.27;1.70;;;48.50;1.00;;;;;;5058826;28;20466;-72
2022/07/09 09:31:53;;;;;;;22.50;1.83;;;47.80;1.00;;;;;;5054869;28;20797;-72
2022/07/09 09:34:20;;;;;;;23.03;1.90;;;46.90;1.00;;;;;;5064561;28;20469;-73
2022/07/09 09:36:51;;;;;;;22.83;1.60;;;45.90;1.00;;;;;;5046311;28;20569;-73
2022/07/09 09:39:19;;;;;;;22.20;1.50;;;44.20;1.00;;;;;;5066204;28;20467;-72
2022/07/09 09:41:47;;;;;;;22.73;1.90;;;41.90;1.00;;;;;;5050387;28;20462;-72
2022/07/09 09:44:15;;;;;;;23.20;1.93;;;39.90;1.00;;;;;;5047521;28;20749;-74
2022/07/09 09:46:43;;;;;;;24.07;2.13;;;38.30;1.00;;;;;;5059429;28;20477;-72
2022/07/09 09:49:14;;;;;;;23.83;2.00;;;36.80;1.00;;;;;;5051708;28;20557;-72
2022/07/09 09:51:47;;;;;;;24.90;2.10;;;35.50;1.00;;;;;;5042773;28;20979;-72
2022/07/09 09:54:16;;;;;;;24.20;2.00;;;34.40;1.00;;;;;;5053775;28;20457;-72
2022/07/09 09:56:43;;;;;;;25.10;2.33;;;33.40;1.00;;;;;;5056563;28;21191;-72
2022/07/09 09:59:11;;;;;;;25.27;2.47;;;32.70;1.00;;;;;;5047738;28;20453;-71
2022/07/09 10:01:39;;;;;;;26.17;2.00;;;32.10;1.00;;;;;;5040164;28;20496;-72
2022/07/09 10:04:06;;;;;;;28.00;2.30;;;31.60;1.00;;;;;;5052777;28;20510;-73
2022/07/09 10:06:33;;;;;;;27.53;2.33;;;31.10;1.00;;;;;;5045761;28;20492;-72
2022/07/09 10:09:03;;;;;;;26.10;2.00;;;30.70;1.00;;;;;;5049730;28;21181;-73
2022/07/09 10:11:41;;;;;;;25.13;2.30;;;30.50;1.00;;;;;;5032620;28;20455;-72
2022/07/09 10:14:08;;;;;;;26.30;1.90;;;30.20;1.00;;;;;;5041480;28;20450;-72
2022/07/09 10:16:40;;;;;;;25.73;2.40;;;30.10;1.00;;;;;;5046033;28;21049;-72
2022/07/09 10:19:07;;;;;;;25.90;2.00;;;30.00;1.00;;;;;;5038585;28;20480;-73
2022/07/09 10:21:38;;;;;;;25.47;2.07;;;29.80;1.00;;;;;;5048797;28;20474;-73
2022/07/09 10:24:07;;;;;;;26.50;2.00;;;29.70;1.00;;;;;;5045086;28;20469;-73
2022/07/09 10:26:47;;;;;;;26.57;2.07;;;29.70;1.00;;;;;;5045588;28;20482;-73
2022/07/09 10:29:22;;;;;;;25.30;2.07;;;29.50;1.00;;;;;;5043206;28;20850;-72
2022/07/09 10:31:48;;;;;;;26.60;2.50;;;29.30;1.00;;;;;;5048843;28;20472;-74
2022/07/09 10:34:51;;;;;;;25.80;1.97;;;29.20;1.00;;;;;;5043734;28;20842;-72
2022/07/09 10:37:18;;;;;;;26.00;2.30;;;29.10;1.00;;;;;;5053196;28;20492;-72
2022/07/09 10:39:54;;;;;;;27.10;2.00;;;29.20;1.00;;;;;;5067903;28;20483;-72
2022/07/09 10:42:24;;;;;;;25.80;2.30;;;29.20;1.00;;;;;;5043341;28;20488;-72
2022/07/09 10:44:51;;;;;;;26.00;2.10;;;29.20;1.00;;;;;;5047044;28;20823;-73
2022/07/09 10:47:18;;;;;;;26.27;2.27;;;29.20;1.00;;;;;;5048940;28;20573;-73
2022/07/09 10:49:45;;;;;;;27.10;2.73;;;29.20;1.00;;;;;;5049797;28;20813;-73
2022/07/09 10:52:12;;;;;;;27.60;2.67;;;29.10;1.00;;;;;;5052644;28;20472;-73
2022/07/09 10:54:47;;;;;;;26.20;2.47;;;29.00;1.00;;;;;;5038774;28;22813;-71
2022/07/09 10:57:14;;;;;;;26.00;2.93;;;28.80;1.00;;;;;;5041267;28;20482;-72
2022/07/09 10:59:48;;;;;;;28.90;2.43;;;28.80;1.00;;;;;;5045600;28;20462;-72
2022/07/09 11:02:19;;;;;;;26.93;2.60;;;28.80;1.00;;;;;;5038383;28;20486;-72
2022/07/09 11:04:51;;;;;;;27.00;2.27;;;29.00;1.60;;;;;;5040456;28;20947;-73
2022/07/09 11:07:22;;;;;;;26.87;2.50;;;29.10;1.00;;;;;;5040678;28;20572;-72
2022/07/09 11:09:50;;;;;;;27.13;3.07;;;29.10;1.00;;;;;;5049182;28;20462;-72
2022/07/09 11:12:17;;;;;;;26.67;2.57;;;29.10;1.00;;;;;;5053555;28;20552;-73
2022/07/09 11:14:47;;;;;;;25.53;2.20;;;29.00;1.00;;;;;;5053116;28;20462;-73
2022/07/09 11:17:18;;;;;;;25.37;2.20;;;29.00;1.00;;;;;;5055463;28;20864;-73
2022/07/09 11:19:46;;;;;;;29.43;2.37;;;29.00;1.00;;;;;;5051985;28;20465;-73
2022/07/09 11:22:13;;;;;;;25.67;1.70;;;29.10;1.00;;;;;;5057034;28;20461;-72
2022/07/09 11:24:40;;;;;;;26.47;2.50;;;29.20;1.00;;;;;;5052149;28;20458;-72
2022/07/09 11:27:08;;;;;;;26.10;2.13;;;29.30;1.00;;;;;;5045457;28;20478;-72
2022/07/09 11:29:35;;;;;;;28.73;2.03;;;29.50;1.00;;;;;;5041140;28;20466;-72
2022/07/09 11:32:04;;;;;;;25.20;2.03;;;29.60;1.00;;;;;;5039545;28;21014;-73
2022/07/09 11:34:31;;;;;;;25.03;1.80;;;29.70;1.00;;;;;;5041981;28;20545;-71
2022/07/09 11:36:59;;;;;;;25.23;1.90;;;30.00;1.00;;;;;;5043433;28;21041;-71
2022/07/09 11:39:28;;;;;;;25.60;1.87;;;30.20;1.00;;;;;;5045987;28;20468;-73
2022/07/09 11:41:56;;;;;;;27.63;2.50;;;30.30;1.00;;;;;;5065230;28;20932;-73
2022/07/09 11:44:24;;;;;;;27.30;2.00;;;30.30;1.00;;;;;;5044238;28;20462;-72
2022/07/09 11:47:06;;;;;;;27.87;2.70;;;30.20;1.00;;;;;;5041854;28;20482;-72
2022/07/09 11:49:34;;;;;;;25.77;2.13;;;30.00;1.00;;;;;;5049271;28;20468;-73
2022/07/09 11:52:00;;;;;;;25.50;1.70;;;29.70;1.00;;;;;;5049413;28;20462;-71
2022/07/09 11:54:28;;;;;;;25.87;2.00;;;29.70;1.00;;;;;;5055086;28;20954;-74
2022/07/09 11:56:55;;;;;;;27.90;2.13;;;29.60;1.00;;;;;;5046725;28;20482;-73
2022/07/09 11:59:26;;;;;;;27.73;2.07;;;29.60;1.00;;;;;;5053821;28;20573;-75
2022/07/09 12:01:55;;;;;;;25.00;1.77;;;29.60;1.00;;;;;;5039344;28;20478;-72
2022/07/09 12:04:24;;;;;;;26.30;2.00;;;29.50;1.00;;;;;;5050579;28;20466;-73
2022/07/09 12:06:52;;;;;;;26.83;2.30;;;29.50;1.00;;;;;;5045645;28;21183;-73
2022/07/09 12:09:30;;;;;;;26.87;2.40;;;29.40;1.00;;;;;;5046681;28;20465;-72
2022/07/09 12:11:57;;;;;;;26.10;2.00;;;29.40;1.00;;;;;;5044451;28;20464;-71
2022/07/09 12:14:27;;;;;;;25.67;2.30;;;29.30;1.00;;;;;;5046078;28;20484;-73
2022/07/09 12:16:54;;;;;;;26.30;2.13;;;29.30;1.00;;;;;;5046023;28;21213;-73
2022/07/09 12:19:21;;;;;;;31.80;2.90;;;29.20;1.00;;;;;;5048089;28;20508;-73
2022/07/09 12:21:50;;;;;;;25.00;1.90;;;29.10;1.00;;;;;;5050105;28;20541;-72
2022/07/09 12:24:16;;;;;;;25.70;1.80;;;29.10;1.00;;;;;;5046193;28;20520;-72
2022/07/09 12:26:44;;;;;;;25.77;1.90;;;29.10;1.00;;;;;;5048631;28;20576;-73
2022/07/09 12:29:10;;;;;;;27.03;1.90;;;29.00;1.00;;;;;;5045309;28;20556;-73
2022/07/09 12:31:37;;;;;;;26.00;2.20;;;29.00;1.00;;;;;;5047343;28;20470;-74
2022/07/09 12:34:05;;;;;;;26.50;2.73;;;28.80;1.00;;;;;;5052154;28;20461;-72
2022/07/09 12:36:32;;;;;;;29.00;2.17;;;28.70;1.00;;;;;;5048073;28;20543;-72
2022/07/09 12:39:01;;;;;;;25.67;1.70;;;28.70;1.00;;;;;;5048641;28;20547;-72
2022/07/09 12:41:39;;;;;;;27.30;2.27;;;28.60;1.00;;;;;;5044017;28;20492;-71
2022/07/09 12:44:06;;;;;;;26.10;1.77;;;28.50;1.00;;;;;;5048908;28;20469;-73
2022/07/09 12:46:34;;;;;;;27.53;2.73;;;28.50;1.00;;;;;;5049164;28;20478;-74
2022/07/09 12:49:01;;;;;;;29.63;2.43;;;28.50;1.00;;;;;;5048705;28;20462;-73
2022/07/09 12:51:27;;;;;;;25.73;2.43;;;28.60;1.00;;;;;;5043173;28;20463;-72